Scotland Neck, North Carolina
Current Conditions -  °F | °C
As of 4:35 AM on Monday 24 Nov 2014 (Local Time) from KETC Reporting Station
Broken Clouds Broken Clouds  
Wind Chill: 68°   Ceiling: 3400
Heat Index: 68°   Visibility: 10mi
Dew Point: 65°   Wind: 6mph
Humidity: 91%   Direction: 190°S
Pressure: 29.8"   Gusts: NA
Location:  36.13°N, 77.42°W
Report Text: KETC 240935Z AUTO 19005KT 10SM SCT011 SCT026 BKN034 20/18 A2980 RMK AO2 T01980183
Loading
Personal Weather Stations






























Interactive Weather Map New forecast layout! Learn more

10-Day Weather Forecast

Advertisements
Track Severe Weather on mobile